createdAt,value
2019-01-28T00:09:00.927Z,6.63
2019-01-28T00:11:29.829Z,7.50
2019-01-28T00:13:58.768Z,5.10
2019-01-28T00:16:27.875Z,6.07
2019-01-28T00:18:56.878Z,9.10
2019-01-28T00:21:25.838Z,5.90
2019-01-28T00:23:54.901Z,6.83
2019-01-28T00:26:23.930Z,5.23
2019-01-28T00:28:52.844Z,4.37
2019-01-28T00:31:21.894Z,3.50
2019-01-28T00:33:50.983Z,4.80
2019-01-28T00:36:19.923Z,8.00
2019-01-28T00:38:49.001Z,4.30
2019-01-28T00:41:17.965Z,5.57
2019-01-28T00:43:46.904Z,5.10
2019-01-28T00:46:15.826Z,4.77
2019-01-28T00:48:45.137Z,5.60
2019-01-28T00:51:14.149Z,5.27
2019-01-28T00:53:43.049Z,3.97
2019-01-28T00:56:12.094Z,6.30
2019-01-28T00:58:41.041Z,3.23
2019-01-28T01:01:10.242Z,8.67
2019-01-28T01:03:39.317Z,5.13
2019-01-28T01:06:08.337Z,2.97
2019-01-28T01:08:37.243Z,3.20
2019-01-28T01:11:06.502Z,2.63
2019-01-28T01:13:35.500Z,3.93
2019-01-28T01:16:04.568Z,2.63
2019-01-28T01:18:33.421Z,2.07
2019-01-28T01:21:02.465Z,2.33
2019-01-28T01:23:31.587Z,2.50
2019-01-28T01:26:00.586Z,2.77
2019-01-28T01:28:29.407Z,2.03
2019-01-28T01:30:58.311Z,4.33
2019-01-28T01:33:27.231Z,1.80
2019-01-28T01:35:56.097Z,1.90
2019-01-28T01:38:25.010Z,3.97
2019-01-28T01:40:54.014Z,1.90
2019-01-28T01:43:23.042Z,1.67
2019-01-28T01:45:52.016Z,2.57
2019-01-28T01:48:20.970Z,2.60
2019-01-28T01:50:49.882Z,2.00
2019-01-28T01:53:18.855Z,1.63
2019-01-28T01:55:48.125Z,1.63
2019-01-28T01:58:17.141Z,4.17
2019-01-28T02:00:46.218Z,1.50
2019-01-28T02:03:15.199Z,3.30
2019-01-28T02:05:44.209Z,1.67
2019-01-28T02:08:13.225Z,2.17
2019-01-28T02:10:42.135Z,3.27
2019-01-28T02:13:11.188Z,1.60
2019-01-28T02:15:40.206Z,1.53
2019-01-28T02:18:09.483Z,4.07
2019-01-28T02:20:38.433Z,1.57
2019-01-28T02:23:07.505Z,1.70
2019-01-28T02:25:36.371Z,2.30
2019-01-28T02:28:05.266Z,1.27
2019-01-28T02:30:34.396Z,1.57
2019-01-28T02:33:03.361Z,1.30
2019-01-28T02:35:32.327Z,2.80
2019-01-28T02:38:01.478Z,1.50
2019-01-28T02:40:30.410Z,2.50
2019-01-28T02:42:59.330Z,1.10
2019-01-28T02:45:28.274Z,1.27
2019-01-28T02:47:57.558Z,1.70
2019-01-28T02:50:26.472Z,1.00
2019-01-28T02:52:55.471Z,2.63
2019-01-28T02:55:24.456Z,1.60
2019-01-28T02:57:53.439Z,1.50
2019-01-28T03:00:23.246Z,1.30
2019-01-28T03:02:52.203Z,1.97
2019-01-28T03:05:21.275Z,3.13
2019-01-28T03:07:50.250Z,1.27
2019-01-28T03:10:21.145Z,1.33
2019-01-28T03:12:50.290Z,4.03
2019-01-28T03:15:19.883Z,6.03
2019-01-28T03:17:48.900Z,2.60
2019-01-28T03:20:18.669Z,3.93
2019-01-28T03:22:47.833Z,4.07
2019-01-28T03:25:17.319Z,1.87
2019-01-28T03:27:46.389Z,1.50
2019-01-28T03:30:17.464Z,1.33
2019-01-28T03:32:46.567Z,2.13
2019-01-28T03:35:15.709Z,3.20
2019-01-28T03:37:44.736Z,2.57
2019-01-28T03:40:16.457Z,1.37
2019-01-28T03:42:45.714Z,3.10
2019-01-28T03:45:16.282Z,1.23
2019-01-28T03:47:45.238Z,2.83
2019-01-28T03:50:15.252Z,1.97
2019-01-28T03:52:44.473Z,1.60
2019-01-28T03:55:13.964Z,1.10
2019-01-28T03:57:43.409Z,2.00
2019-01-28T04:00:23.055Z,1.40
2019-01-28T04:02:52.040Z,1.20
2019-01-28T04:05:21.282Z,1.20
2019-01-28T04:07:50.432Z,2.60
2019-01-28T04:10:21.340Z,1.10
2019-01-28T04:12:50.743Z,2.20
2019-01-28T04:15:20.518Z,1.40
2019-01-28T04:17:49.624Z,1.40
2019-01-28T04:20:19.846Z,1.10
2019-01-28T04:22:49.118Z,0.80
2019-01-28T04:25:18.166Z,4.37
2019-01-28T04:27:47.323Z,1.20
2019-01-28T04:30:18.325Z,1.93
2019-01-28T04:32:47.300Z,0.73
2019-01-28T04:35:16.795Z,2.67
2019-01-28T04:37:45.860Z,0.73
2019-01-28T04:40:14.976Z,0.97
2019-01-28T04:42:44.085Z,0.83
2019-01-28T04:45:14.885Z,0.50
2019-01-28T04:47:44.027Z,2.13
2019-01-28T04:50:15.200Z,0.60
2019-01-28T04:52:44.107Z,0.77
2019-01-28T04:55:13.590Z,2.43
2019-01-28T04:57:42.522Z,0.60
2019-01-28T05:00:16.718Z,0.73
2019-01-28T05:02:45.751Z,0.47
2019-01-28T05:05:14.871Z,3.67
2019-01-28T05:07:43.899Z,0.50
2019-01-28T05:10:13.845Z,0.70
2019-01-28T05:12:42.716Z,0.80
2019-01-28T05:15:12.389Z,0.63
2019-01-28T05:17:41.386Z,0.40
2019-01-28T05:20:11.737Z,0.63
2019-01-28T05:22:40.765Z,0.60
2019-01-28T05:25:11.052Z,0.70
2019-01-28T05:27:40.062Z,0.87
2019-01-28T05:30:12.016Z,0.73
2019-01-28T05:32:41.039Z,0.70
2019-01-28T05:35:10.932Z,1.77
2019-01-28T05:37:40.115Z,0.87
2019-01-28T05:40:10.784Z,1.63
2019-01-28T05:42:39.779Z,3.03
2019-01-28T05:45:10.107Z,1.83
2019-01-28T05:47:38.893Z,3.17
2019-01-28T05:50:08.552Z,2.90
2019-01-28T05:52:37.486Z,1.10
2019-01-28T05:55:06.953Z,2.23
2019-01-28T05:57:35.804Z,0.90
2019-01-28T06:00:06.794Z,1.80
2019-01-28T06:02:35.989Z,3.13
2019-01-28T06:05:05.847Z,1.33
2019-01-28T06:07:54.243Z,1.20
2019-01-28T06:10:23.880Z,3.83
2019-01-28T06:13:00.533Z,2.00
2019-01-28T06:15:38.860Z,5.17
2019-01-28T06:18:08.667Z,1.53
2019-01-28T06:23:58.671Z,3.60
2019-01-28T06:26:28.218Z,1.57
2019-01-28T06:29:09.641Z,1.30
2019-01-28T06:31:40.882Z,2.40
2019-01-28T06:34:35.391Z,1.40
2019-01-28T06:37:10.920Z,1.97
2019-01-28T06:39:56.155Z,0.90
2019-01-28T06:45:07.697Z,0.90
2019-01-28T06:48:12.758Z,1.47
2019-01-28T06:51:06.970Z,1.37
2019-01-28T06:53:50.238Z,1.07
2019-01-28T06:56:26.279Z,1.30
2019-01-28T06:58:55.164Z,1.43
2019-01-28T07:01:31.151Z,1.30
2019-01-28T07:04:06.594Z,5.57
2019-01-28T07:06:37.906Z,1.00
2019-01-28T07:09:09.283Z,1.30
2019-01-28T07:11:38.665Z,1.20
2019-01-28T07:14:07.951Z,2.10
2019-01-28T07:16:37.471Z,1.20
2019-01-28T07:19:22.117Z,1.90
2019-01-28T07:21:51.383Z,3.70
2019-01-28T07:24:20.786Z,1.80
2019-01-28T07:26:50.168Z,1.67
2019-01-28T07:29:19.534Z,3.33
2019-01-28T07:31:52.116Z,2.00
2019-01-28T07:34:29.461Z,2.03
2019-01-28T07:36:58.884Z,2.40
2019-01-28T07:42:27.213Z,1.70
2019-01-28T07:45:18.953Z,1.70
2019-01-28T07:47:48.280Z,1.87
2019-01-28T07:50:42.364Z,2.37
2019-01-28T07:53:52.051Z,2.77
2019-01-28T07:56:23.911Z,2.37
2019-01-28T07:58:52.979Z,3.37
2019-01-28T08:01:24.794Z,2.93
2019-01-28T08:03:56.787Z,1.87
2019-01-28T08:06:27.610Z,8.53
2019-01-28T08:08:58.637Z,4.47
2019-01-28T08:11:28.499Z,1.70
2019-01-28T08:13:57.783Z,1.90
2019-01-28T08:16:27.007Z,1.93
2019-01-28T08:18:56.432Z,1.83
2019-01-28T08:21:26.314Z,4.07
2019-01-28T08:23:55.897Z,2.40
2019-01-28T08:26:25.322Z,2.30
2019-01-28T08:28:54.804Z,2.53
2019-01-28T08:31:26.811Z,13.73
2019-01-28T08:33:56.235Z,2.13
2019-01-28T08:36:33.380Z,2.03
2019-01-28T08:39:04.057Z,2.23
2019-01-28T08:41:35.226Z,3.07
2019-01-28T08:44:04.707Z,2.20
2019-01-28T08:46:34.295Z,1.90
2019-01-28T08:49:05.968Z,1.60
2019-01-28T08:51:38.247Z,2.03
2019-01-28T08:54:07.946Z,2.13
2019-01-28T08:56:38.650Z,2.20
2019-01-28T08:59:07.714Z,2.07
2019-01-28T09:01:37.255Z,4.87
2019-01-28T09:04:06.781Z,2.50
2019-01-28T09:06:40.350Z,2.57
2019-01-28T09:09:10.952Z,2.17
2019-01-28T09:11:40.333Z,3.40
2019-01-28T09:14:09.561Z,3.77
2019-01-28T09:16:40.603Z,5.20
2019-01-28T09:19:10.137Z,2.13
2019-01-28T09:21:39.563Z,1.83
2019-01-28T09:24:08.993Z,3.33
2019-01-28T09:26:38.236Z,2.87
2019-01-28T09:29:07.580Z,1.83
2019-01-28T09:31:38.218Z,6.37
2019-01-28T09:34:07.388Z,3.03
2019-01-28T09:36:38.432Z,2.90
2019-01-28T09:39:08.777Z,5.80
2019-01-28T09:41:40.300Z,5.33
2019-01-28T09:44:21.684Z,3.50
2019-01-28T09:46:50.846Z,2.40
2019-01-28T09:49:20.091Z,3.53
2019-01-28T09:51:51.396Z,4.60
2019-01-28T09:54:20.701Z,2.37
2019-01-28T09:56:50.807Z,3.30
2019-01-28T09:59:22.648Z,3.63
2019-01-28T10:01:56.054Z,4.70
2019-01-28T10:04:27.396Z,3.50
2019-01-28T10:07:01.179Z,3.13
2019-01-28T10:09:29.078Z,4.40
2019-01-28T10:12:01.852Z,5.17
2019-01-28T10:14:31.230Z,5.10
2019-01-28T10:17:00.664Z,3.47
2019-01-28T10:19:30.099Z,3.83
2019-01-28T10:22:11.606Z,3.90
2019-01-28T10:24:40.890Z,4.40
2019-01-28T10:27:10.414Z,4.10
2019-01-28T10:29:51.355Z,4.30
2019-01-28T10:32:20.543Z,3.50
2019-01-28T10:34:51.644Z,4.90
2019-01-28T10:37:20.839Z,4.63
2019-01-28T10:39:49.993Z,3.80
2019-01-28T10:42:19.679Z,4.03
2019-01-28T10:44:49.116Z,7.33
2019-01-28T10:47:18.487Z,5.77
2019-01-28T10:49:48.886Z,11.93
2019-01-28T10:52:19.555Z,7.30
2019-01-28T10:54:49.355Z,5.97
2019-01-28T10:57:19.163Z,5.27
2019-01-28T10:59:48.475Z,4.37
2019-01-28T11:02:17.760Z,5.30
2019-01-28T11:04:46.989Z,6.17
2019-01-28T11:07:16.333Z,3.60
2019-01-28T11:09:45.490Z,8.17
2019-01-28T11:12:14.827Z,8.43
2019-01-28T11:14:47.361Z,7.57
2019-01-28T11:17:16.570Z,8.50
2019-01-28T11:19:45.895Z,1.80
2019-01-28T11:22:15.674Z,3.27
2019-01-28T11:24:45.403Z,3.03
2019-01-28T11:27:15.612Z,3.30
2019-01-28T11:29:45.005Z,3.17
2019-01-28T11:32:16.086Z,3.10
2019-01-28T11:34:45.470Z,2.77
2019-01-28T11:37:15.311Z,3.37
2019-01-28T11:39:44.879Z,2.83
2019-01-28T11:42:14.208Z,4.13
2019-01-28T11:44:43.757Z,3.67
2019-01-28T11:47:13.677Z,8.70
2019-01-28T11:49:47.326Z,7.57
2019-01-28T11:52:16.787Z,9.27
2019-01-28T11:54:47.648Z,7.23
2019-01-28T11:57:16.994Z,5.13
2019-01-28T11:59:46.196Z,6.37
2019-01-28T12:02:15.800Z,4.97
2019-01-28T12:04:45.345Z,9.93
2019-01-28T12:07:15.481Z,3.07
2019-01-28T12:09:49.291Z,4.17
2019-01-28T12:12:21.114Z,3.33
2019-01-28T12:14:50.337Z,5.40
2019-01-28T12:17:19.643Z,5.13
2019-01-28T12:19:49.167Z,6.67
2019-01-28T12:22:19.066Z,7.30
2019-01-28T12:24:48.335Z,5.00
2019-01-28T12:27:17.797Z,4.33
2019-01-28T12:29:47.266Z,8.30
2019-01-28T12:32:20.227Z,11.90
2019-01-28T12:34:51.152Z,7.30
2019-01-28T12:37:22.647Z,9.63
2019-01-28T12:39:52.140Z,5.40
2019-01-28T12:42:21.760Z,9.03
2019-01-28T12:44:58.990Z,8.43
2019-01-28T12:47:31.625Z,11.57
2019-01-28T12:50:04.137Z,4.27
2019-01-28T12:52:33.875Z,4.50
2019-01-28T12:55:03.038Z,12.23
2019-01-28T12:57:32.304Z,17.13
2019-01-28T13:00:01.630Z,7.37
2019-01-28T13:02:38.479Z,7.17
2019-01-28T13:05:10.618Z,11.23
2019-01-28T13:07:40.263Z,6.47
2019-01-28T13:10:16.886Z,6.70
2019-01-28T13:12:46.394Z,7.77
2019-01-28T13:15:19.011Z,6.20
2019-01-28T13:17:48.237Z,9.47
2019-01-28T13:20:17.362Z,8.43
2019-01-28T13:22:50.487Z,5.60
2019-01-28T13:25:25.826Z,8.47
2019-01-28T13:27:57.054Z,3.67
2019-01-28T13:30:29.359Z,6.30
2019-01-28T13:33:00.128Z,10.60
2019-01-28T13:35:29.386Z,5.20
2019-01-28T13:37:58.910Z,3.80
2019-01-28T13:40:28.391Z,6.10
2019-01-28T13:42:58.017Z,4.60
2019-01-28T13:45:27.302Z,6.33
2019-01-28T13:47:57.046Z,3.10
2019-01-28T13:50:26.556Z,5.60
2019-01-28T13:52:56.047Z,7.60
2019-01-28T13:55:25.629Z,4.97
2019-01-28T13:57:55.242Z,5.33
2019-01-28T14:00:26.267Z,5.47
2019-01-28T14:02:57.309Z,5.07
2019-01-28T14:05:26.853Z,5.83
2019-01-28T14:07:56.634Z,7.03
2019-01-28T14:10:26.035Z,8.00
2019-01-28T14:12:55.547Z,10.07
2019-01-28T14:15:29.791Z,4.40
2019-01-28T14:17:59.134Z,5.53
2019-01-28T14:20:32.417Z,8.03
2019-01-28T14:23:01.900Z,5.30
2019-01-28T14:25:39.687Z,7.47
2019-01-28T14:28:10.550Z,3.30
2019-01-28T14:30:48.512Z,4.80
2019-01-28T14:33:18.057Z,10.20
2019-01-28T14:35:47.402Z,7.60
2019-01-28T14:38:16.723Z,5.17
2019-01-28T14:40:47.102Z,7.97
2019-01-28T14:43:16.772Z,14.63
2019-01-28T14:45:46.056Z,16.63
2019-01-28T14:48:15.780Z,14.07
2019-01-28T14:51:07.743Z,11.20
2019-01-28T14:53:16.494Z,4.03
2019-01-28T14:55:45.672Z,5.47
2019-01-28T14:58:16.759Z,8.43
2019-01-28T15:00:47.567Z,4.20
2019-01-28T15:03:18.142Z,14.37
2019-01-28T15:05:47.387Z,10.17
2019-01-28T15:08:16.712Z,13.40
2019-01-28T15:10:46.337Z,10.60
2019-01-28T15:13:15.984Z,9.83
2019-01-28T15:15:45.848Z,6.23
2019-01-28T15:18:15.890Z,8.83
2019-01-28T15:20:45.241Z,12.90
2019-01-28T15:23:14.935Z,15.73
2019-01-28T15:25:47.023Z,11.60
2019-01-28T15:28:16.401Z,9.83
2019-01-28T15:30:46.124Z,14.03
2019-01-28T15:33:16.081Z,13.97
2019-01-28T15:35:53.534Z,13.73
2019-01-28T15:38:22.858Z,11.60
2019-01-28T15:40:55.362Z,13.07
2019-01-28T15:43:24.507Z,10.83
2019-01-28T15:46:01.728Z,18.47
2019-01-28T15:48:33.142Z,14.03
2019-01-28T15:51:03.468Z,9.40
2019-01-28T15:53:34.202Z,10.57
2019-01-28T15:56:04.089Z,17.10
2019-01-28T15:58:35.449Z,11.07
2019-01-28T16:01:05.074Z,10.50
2019-01-28T16:03:34.578Z,12.57
2019-01-28T16:06:23.435Z,6.93
2019-01-28T16:08:52.998Z,15.87
2019-01-28T16:11:22.750Z,11.90
2019-01-28T16:13:52.193Z,20.20
2019-01-28T16:16:22.131Z,11.90
2019-01-28T16:19:46.402Z,9.37
2019-01-28T16:22:16.946Z,12.37
2019-01-28T16:24:46.031Z,12.80
2019-01-28T16:27:55.235Z,11.53
2019-01-28T16:30:52.576Z,10.43
2019-01-28T16:33:22.243Z,8.40
2019-01-28T16:35:54.245Z,8.00
2019-01-28T16:38:25.873Z,9.20
2019-01-28T16:40:57.659Z,10.97
2019-01-28T16:43:29.681Z,9.43
2019-01-28T16:46:10.390Z,9.07
2019-01-28T16:59:47.265Z,8.23
2019-01-28T17:09:57.001Z,10.97
2019-01-28T17:12:29.325Z,11.70
2019-01-28T17:18:34.215Z,8.33
2019-01-28T17:28:20.728Z,8.83
2019-01-28T17:34:43.438Z,8.10
2019-01-28T17:37:55.034Z,13.63
2019-01-28T17:40:51.708Z,8.10
2019-01-28T17:43:26.439Z,10.17
2019-01-28T17:47:06.438Z,10.23
2019-01-28T17:50:34.543Z,8.27
2019-01-28T18:08:06.474Z,12.43
2019-01-28T18:10:35.553Z,13.97
2019-01-28T18:13:04.734Z,15.03
2019-01-28T18:15:33.750Z,13.60
2019-01-28T18:18:02.728Z,11.50
2019-01-28T18:20:31.922Z,9.03
2019-01-28T18:23:00.893Z,12.40
2019-01-28T18:25:30.364Z,7.40
2019-01-28T18:27:59.399Z,10.20
2019-01-28T18:30:49.548Z,6.30
2019-01-28T18:33:18.819Z,7.40
2019-01-28T18:35:47.831Z,6.60
2019-01-28T18:38:16.859Z,11.80
2019-01-28T18:40:45.731Z,11.50
2019-01-28T18:43:14.726Z,5.80
2019-01-28T18:45:43.789Z,12.60
2019-01-28T18:48:12.777Z,11.70
2019-01-28T18:50:41.788Z,11.67
2019-01-28T18:53:10.666Z,11.10
2019-01-28T18:55:39.661Z,10.90
2019-01-28T18:58:08.573Z,9.17
2019-01-28T19:00:37.730Z,7.57
2019-01-28T19:03:06.877Z,9.80
2019-01-28T19:06:01.327Z,9.60
2019-01-28T19:09:01.611Z,6.97
2019-01-28T19:11:48.747Z,8.77
2019-01-28T19:14:42.223Z,14.43
2019-01-28T19:17:30.565Z,10.83
2019-01-28T19:20:19.182Z,6.57
2019-01-28T19:22:48.209Z,5.97
2019-01-28T19:25:17.159Z,10.37
2019-01-28T19:27:46.146Z,6.73
2019-01-28T19:30:19.940Z,7.97
2019-01-28T19:32:48.899Z,13.77
2019-01-28T19:35:17.974Z,17.67
2019-01-28T19:37:46.958Z,5.13
2019-01-28T19:40:16.100Z,7.70
2019-01-28T19:42:45.105Z,6.33
2019-01-28T19:45:19.107Z,7.70
2019-01-28T19:47:48.402Z,6.63
2019-01-28T19:50:24.549Z,8.17
2019-01-28T19:52:53.555Z,8.30
2019-01-28T19:55:22.585Z,7.13
2019-01-28T19:57:51.502Z,7.20
2019-01-28T20:00:25.550Z,8.77
2019-01-28T20:02:55.405Z,7.63
2019-01-28T20:05:24.461Z,16.87
2019-01-28T20:07:53.415Z,7.90
2019-01-28T20:10:22.414Z,6.80
2019-01-28T20:12:51.327Z,9.97
2019-01-28T20:15:20.724Z,6.97
2019-01-28T20:17:49.649Z,7.20
2019-01-28T20:20:18.802Z,6.60
2019-01-28T20:22:47.910Z,11.00
2019-01-28T20:25:17.441Z,9.63
2019-01-28T20:27:46.535Z,10.27
2019-01-28T20:30:24.055Z,14.83
2019-01-28T20:32:53.090Z,8.33
2019-01-28T20:35:22.523Z,9.00
2019-01-28T20:37:51.530Z,9.90
2019-01-28T20:40:20.818Z,10.87
2019-01-28T20:42:50.091Z,7.50
2019-01-28T20:45:20.311Z,10.07
2019-01-28T20:47:49.304Z,9.33
2019-01-28T20:50:20.691Z,8.10
2019-01-28T20:52:49.621Z,10.03
2019-01-28T20:55:18.897Z,13.97
2019-01-28T20:57:47.726Z,9.93
2019-01-28T21:00:22.127Z,14.43
2019-01-28T21:02:51.122Z,9.77
2019-01-28T21:05:20.661Z,15.33
2019-01-28T21:07:49.922Z,12.73
2019-01-28T21:10:19.851Z,13.33
2019-01-28T21:12:49.232Z,15.13
2019-01-28T21:15:18.348Z,8.57
2019-01-28T21:17:47.464Z,10.70
2019-01-28T21:20:17.440Z,9.33
2019-01-28T21:22:46.637Z,12.23
2019-01-28T21:25:17.546Z,10.07
2019-01-28T21:27:46.463Z,13.23
2019-01-28T21:30:18.389Z,12.00
2019-01-28T21:32:47.418Z,11.90
2019-01-28T21:35:16.446Z,15.27
2019-01-28T21:37:50.799Z,16.60
2019-01-28T21:40:19.787Z,10.70
2019-01-28T21:42:48.723Z,16.70
2019-01-28T21:45:17.813Z,10.33
2019-01-28T21:47:55.829Z,14.23
2019-01-28T21:50:26.320Z,10.77
2019-01-28T21:52:55.638Z,8.77
2019-01-28T21:55:24.561Z,12.67
2019-01-28T21:57:53.538Z,8.87
2019-01-28T22:00:23.101Z,12.67
2019-01-28T22:02:52.118Z,13.10
2019-01-28T22:05:21.111Z,12.57
2019-01-28T22:07:50.131Z,9.10
2019-01-28T22:10:19.296Z,15.23
2019-01-28T22:12:48.329Z,17.93
2019-01-28T22:15:17.616Z,17.13
2019-01-28T22:17:46.543Z,17.17
2019-01-28T22:20:15.774Z,22.93
2019-01-28T22:22:44.798Z,18.53
2019-01-28T22:25:14.077Z,17.07
2019-01-28T22:27:43.003Z,17.73
2019-01-28T22:30:15.182Z,14.87
2019-01-28T22:32:44.210Z,11.67
2019-01-28T22:35:13.232Z,19.43
2019-01-28T22:37:42.192Z,14.47
2019-01-28T22:40:12.982Z,14.43
2019-01-28T22:42:41.971Z,16.17
2019-01-28T22:45:13.392Z,15.13
2019-01-28T22:47:42.278Z,18.43
2019-01-28T22:50:13.381Z,18.53
2019-01-28T22:52:42.421Z,19.63
2019-01-28T22:55:13.074Z,17.17
2019-01-28T22:57:42.068Z,17.30
2019-01-28T23:00:44.808Z,20.57
2019-01-28T23:03:13.912Z,18.13
2019-01-28T23:05:42.894Z,19.33
2019-01-28T23:08:11.901Z,14.73
2019-01-28T23:10:40.822Z,18.07
2019-01-28T23:13:09.950Z,20.37
2019-01-28T23:15:39.122Z,12.53
2019-01-28T23:18:08.139Z,18.77
2019-01-28T23:20:37.241Z,19.40
2019-01-28T23:23:06.422Z,14.67
2019-01-28T23:25:35.454Z,15.43
2019-01-28T23:28:04.782Z,18.63
2019-01-28T23:30:33.951Z,14.77
2019-01-28T23:33:02.817Z,15.13
2019-01-28T23:35:32.018Z,16.70
2019-01-28T23:38:01.063Z,15.93
2019-01-28T23:40:30.031Z,17.83
2019-01-28T23:42:59.741Z,15.87
2019-01-28T23:45:28.846Z,21.40
2019-01-28T23:47:57.774Z,13.93
2019-01-28T23:50:26.798Z,15.47
2019-01-28T23:52:55.647Z,20.57
2019-01-28T23:55:24.801Z,20.63
2019-01-28T23:57:56.782Z,24.20
